sensor_id;sensor_type;location;lat;lon;timestamp;temperature;humidity
7388;DHT22;3735;50.136;11.062;2023-11-21T00:00:19;7.30;99.90
7388;DHT22;3735;50.136;11.062;2023-11-21T00:02:45;7.30;99.90
7388;DHT22;3735;50.136;11.062;2023-11-21T00:05:12;7.30;99.90
7388;DHT22;3735;50.136;11.062;2023-11-21T00:07:43;7.30;99.90
7388;DHT22;3735;50.136;11.062;2023-11-21T00:10:09;7.30;99.90
7388;DHT22;3735;50.136;11.062;2023-11-21T00:12:36;7.40;99.90
7388;DHT22;3735;50.136;11.062;2023-11-21T00:15:03;7.40;99.90
7388;DHT22;3735;50.136;11.062;2023-11-21T00:17:34;7.40;99.90
7388;DHT22;3735;50.136;11.062;2023-11-21T00:20:00;7.40;99.90
7388;DHT22;3735;50.136;11.062;2023-11-21T00:22:26;7.40;99.90
7388;DHT22;3735;50.136;11.062;2023-11-21T00:24:51;7.40;99.90
7388;DHT22;3735;50.136;11.062;2023-11-21T00:27:18;7.40;99.90
7388;DHT22;3735;50.136;11.062;2023-11-21T00:29:43;7.40;99.90
7388;DHT22;3735;50.136;11.062;2023-11-21T00:32:09;7.40;99.90
7388;DHT22;3735;50.136;11.062;2023-11-21T00:34:35;7.40;99.90
7388;DHT22;3735;50.136;11.062;2023-11-21T00:37:00;7.40;99.90
7388;DHT22;3735;50.136;11.062;2023-11-21T00:39:26;7.40;99.90
7388;DHT22;3735;50.136;11.062;2023-11-21T00:41:52;7.40;99.90
7388;DHT22;3735;50.136;11.062;2023-11-21T00:44:18;7.40;99.90
7388;DHT22;3735;50.136;11.062;2023-11-21T00:46:44;7.40;99.90
7388;DHT22;3735;50.136;11.062;2023-11-21T00:49:09;7.40;99.90
7388;DHT22;3735;50.136;11.062;2023-11-21T00:51:35;7.40;99.90
7388;DHT22;3735;50.136;11.062;2023-11-21T00:54:01;7.40;99.90
7388;DHT22;3735;50.136;11.062;2023-11-21T00:56:27;7.40;99.90
7388;DHT22;3735;50.136;11.062;2023-11-21T00:58:54;7.50;99.90
7388;DHT22;3735;50.136;11.062;2023-11-21T01:01:20;7.40;99.90
7388;DHT22;3735;50.136;11.062;2023-11-21T01:03:48;7.40;99.90
7388;DHT22;3735;50.136;11.062;2023-11-21T01:06:15;7.40;99.90
7388;DHT22;3735;50.136;11.062;2023-11-21T01:08:41;7.40;99.90
7388;DHT22;3735;50.136;11.062;2023-11-21T01:11:06;7.40;99.90
7388;DHT22;3735;50.136;11.062;2023-11-21T01:13:38;7.40;99.90
7388;DHT22;3735;50.136;11.062;2023-11-21T01:16:05;7.40;99.90
7388;DHT22;3735;50.136;11.062;2023-11-21T01:18:32;7.40;99.90
7388;DHT22;3735;50.136;11.062;2023-11-21T01:20:58;7.40;99.90
7388;DHT22;3735;50.136;11.062;2023-11-21T01:23:25;7.40;99.90
7388;DHT22;3735;50.136;11.062;2023-11-21T01:25:52;7.40;99.90
7388;DHT22;3735;50.136;11.062;2023-11-21T01:28:20;7.40;99.90
7388;DHT22;3735;50.136;11.062;2023-11-21T01:30:46;7.40;99.90
7388;DHT22;3735;50.136;11.062;2023-11-21T01:33:12;7.50;99.90
7388;DHT22;3735;50.136;11.062;2023-11-21T01:35:38;7.40;99.90
7388;DHT22;3735;50.136;11.062;2023-11-21T01:38:04;7.40;99.90
7388;DHT22;3735;50.136;11.062;2023-11-21T01:40:30;7.40;99.90
7388;DHT22;3735;50.136;11.062;2023-11-21T01:42:56;7.40;99.90
7388;DHT22;3735;50.136;11.062;2023-11-21T01:45:23;7.40;99.90
7388;DHT22;3735;50.136;11.062;2023-11-21T01:47:50;7.40;99.90
7388;DHT22;3735;50.136;11.062;2023-11-21T01:50:17;7.40;99.90
7388;DHT22;3735;50.136;11.062;2023-11-21T01:52:45;7.40;99.90
7388;DHT22;3735;50.136;11.062;2023-11-21T01:55:15;7.40;99.90
7388;DHT22;3735;50.136;11.062;2023-11-21T01:57:45;7.40;99.90
7388;DHT22;3735;50.136;11.062;2023-11-21T02:00:12;7.40;99.90
7388;DHT22;3735;50.136;11.062;2023-11-21T02:02:45;7.30;99.90
7388;DHT22;3735;50.136;11.062;2023-11-21T02:05:14;7.30;99.90
7388;DHT22;3735;50.136;11.062;2023-11-21T02:07:41;7.40;99.90
7388;DHT22;3735;50.136;11.062;2023-11-21T02:10:08;7.40;99.90
7388;DHT22;3735;50.136;11.062;2023-11-21T02:12:35;7.30;99.90
7388;DHT22;3735;50.136;11.062;2023-11-21T02:15:02;7.30;99.90
7388;DHT22;3735;50.136;11.062;2023-11-21T02:17:30;7.30;99.90
7388;DHT22;3735;50.136;11.062;2023-11-21T02:19:57;7.30;99.90
7388;DHT22;3735;50.136;11.062;2023-11-21T02:22:26;7.20;99.90
7388;DHT22;3735;50.136;11.062;2023-11-21T02:24:56;7.20;99.90
7388;DHT22;3735;50.136;11.062;2023-11-21T02:27:23;7.20;99.90
7388;DHT22;3735;50.136;11.062;2023-11-21T02:29:50;7.30;99.90
7388;DHT22;3735;50.136;11.062;2023-11-21T02:32:16;7.30;99.90
7388;DHT22;3735;50.136;11.062;2023-11-21T02:34:44;7.30;99.90
7388;DHT22;3735;50.136;11.062;2023-11-21T02:37:10;7.30;99.90
7388;DHT22;3735;50.136;11.062;2023-11-21T02:39:36;7.30;99.90
7388;DHT22;3735;50.136;11.062;2023-11-21T02:42:03;7.30;99.90
7388;DHT22;3735;50.136;11.062;2023-11-21T02:44:29;7.40;99.90
7388;DHT22;3735;50.136;11.062;2023-11-21T02:46:55;7.30;99.90
7388;DHT22;3735;50.136;11.062;2023-11-21T02:49:23;7.40;99.90
7388;DHT22;3735;50.136;11.062;2023-11-21T02:51:48;7.40;99.90
7388;DHT22;3735;50.136;11.062;2023-11-21T02:54:14;7.40;99.90
7388;DHT22;3735;50.136;11.062;2023-11-21T02:56:42;7.40;99.90
7388;DHT22;3735;50.136;11.062;2023-11-21T02:59:08;7.40;99.90
7388;DHT22;3735;50.136;11.062;2023-11-21T03:01:34;7.40;99.90
7388;DHT22;3735;50.136;11.062;2023-11-21T03:04:00;7.30;99.90
7388;DHT22;3735;50.136;11.062;2023-11-21T03:06:25;7.30;99.90
7388;DHT22;3735;50.136;11.062;2023-11-21T03:08:51;7.30;99.90
7388;DHT22;3735;50.136;11.062;2023-11-21T03:11:17;7.30;99.90
7388;DHT22;3735;50.136;11.062;2023-11-21T03:13:42;7.30;99.90
7388;DHT22;3735;50.136;11.062;2023-11-21T03:16:09;7.30;99.90
7388;DHT22;3735;50.136;11.062;2023-11-21T03:18:36;7.30;99.90
7388;DHT22;3735;50.136;11.062;2023-11-21T03:21:05;7.30;99.90
7388;DHT22;3735;50.136;11.062;2023-11-21T03:23:34;7.40;99.90
7388;DHT22;3735;50.136;11.062;2023-11-21T03:26:01;7.40;99.90
7388;DHT22;3735;50.136;11.062;2023-11-21T03:28:27;7.40;99.90
7388;DHT22;3735;50.136;11.062;2023-11-21T03:30:54;7.40;99.90
7388;DHT22;3735;50.136;11.062;2023-11-21T03:33:20;7.40;99.90
7388;DHT22;3735;50.136;11.062;2023-11-21T03:35:46;7.40;99.90
7388;DHT22;3735;50.136;11.062;2023-11-21T03:38:12;7.40;99.90
7388;DHT22;3735;50.136;11.062;2023-11-21T03:40:38;7.40;99.90
7388;DHT22;3735;50.136;11.062;2023-11-21T03:43:05;7.40;99.90
7388;DHT22;3735;50.136;11.062;2023-11-21T03:45:31;7.40;99.90
7388;DHT22;3735;50.136;11.062;2023-11-21T03:47:57;7.40;99.90
7388;DHT22;3735;50.136;11.062;2023-11-21T03:50:23;7.40;99.90
7388;DHT22;3735;50.136;11.062;2023-11-21T03:52:48;7.40;99.90
7388;DHT22;3735;50.136;11.062;2023-11-21T03:55:14;7.40;99.90
7388;DHT22;3735;50.136;11.062;2023-11-21T03:57:40;7.40;99.90
7388;DHT22;3735;50.136;11.062;2023-11-21T04:00:07;7.40;99.90
7388;DHT22;3735;50.136;11.062;2023-11-21T04:02:36;7.40;99.90
7388;DHT22;3735;50.136;11.062;2023-11-21T04:05:01;7.40;99.90
7388;DHT22;3735;50.136;11.062;2023-11-21T04:07:28;7.40;99.90
7388;DHT22;3735;50.136;11.062;2023-11-21T04:09:54;7.40;99.90
7388;DHT22;3735;50.136;11.062;2023-11-21T04:12:20;7.40;99.90
7388;DHT22;3735;50.136;11.062;2023-11-21T04:14:45;7.40;99.90
7388;DHT22;3735;50.136;11.062;2023-11-21T04:17:11;7.40;99.90
7388;DHT22;3735;50.136;11.062;2023-11-21T04:19:37;7.40;99.90
7388;DHT22;3735;50.136;11.062;2023-11-21T04:22:02;7.30;99.90
7388;DHT22;3735;50.136;11.062;2023-11-21T04:24:29;7.40;99.90
7388;DHT22;3735;50.136;11.062;2023-11-21T04:26:55;7.40;99.90
7388;DHT22;3735;50.136;11.062;2023-11-21T04:29:21;7.40;99.90
7388;DHT22;3735;50.136;11.062;2023-11-21T04:31:47;7.40;99.90
7388;DHT22;3735;50.136;11.062;2023-11-21T04:34:14;7.40;99.90
7388;DHT22;3735;50.136;11.062;2023-11-21T04:36:40;7.40;99.90
7388;DHT22;3735;50.136;11.062;2023-11-21T04:39:06;7.40;99.90
7388;DHT22;3735;50.136;11.062;2023-11-21T04:41:32;7.40;99.90
7388;DHT22;3735;50.136;11.062;2023-11-21T04:43:58;7.30;99.90
7388;DHT22;3735;50.136;11.062;2023-11-21T04:46:26;7.30;99.90
7388;DHT22;3735;50.136;11.062;2023-11-21T04:48:52;7.30;99.90
7388;DHT22;3735;50.136;11.062;2023-11-21T04:51:17;7.40;99.90
7388;DHT22;3735;50.136;11.062;2023-11-21T04:53:43;7.30;99.90
7388;DHT22;3735;50.136;11.062;2023-11-21T04:56:09;7.30;99.90
7388;DHT22;3735;50.136;11.062;2023-11-21T04:58:35;7.30;99.90
7388;DHT22;3735;50.136;11.062;2023-11-21T05:01:01;7.40;99.90
7388;DHT22;3735;50.136;11.062;2023-11-21T05:03:27;7.40;99.90
7388;DHT22;3735;50.136;11.062;2023-11-21T05:05:55;7.40;99.90
7388;DHT22;3735;50.136;11.062;2023-11-21T05:08:21;7.40;99.90
7388;DHT22;3735;50.136;11.062;2023-11-21T05:10:47;7.40;99.90
7388;DHT22;3735;50.136;11.062;2023-11-21T05:13:14;7.40;99.90
7388;DHT22;3735;50.136;11.062;2023-11-21T05:15:41;7.40;99.90
7388;DHT22;3735;50.136;11.062;2023-11-21T05:18:06;7.40;99.90
7388;DHT22;3735;50.136;11.062;2023-11-21T05:20:32;7.40;99.90
7388;DHT22;3735;50.136;11.062;2023-11-21T05:22:58;7.40;99.90
7388;DHT22;3735;50.136;11.062;2023-11-21T05:25:24;7.40;99.90
7388;DHT22;3735;50.136;11.062;2023-11-21T05:27:50;7.40;99.90
7388;DHT22;3735;50.136;11.062;2023-11-21T05:30:16;7.40;99.90
7388;DHT22;3735;50.136;11.062;2023-11-21T05:32:41;7.40;99.90
7388;DHT22;3735;50.136;11.062;2023-11-21T05:35:08;7.40;99.90
7388;DHT22;3735;50.136;11.062;2023-11-21T05:37:43;7.40;99.90
7388;DHT22;3735;50.136;11.062;2023-11-21T05:40:11;7.40;99.90
7388;DHT22;3735;50.136;11.062;2023-11-21T05:42:39;7.40;99.90
7388;DHT22;3735;50.136;11.062;2023-11-21T05:45:06;7.40;99.90
7388;DHT22;3735;50.136;11.062;2023-11-21T05:47:40;7.40;99.90
7388;DHT22;3735;50.136;11.062;2023-11-21T05:50:08;7.40;99.90
7388;DHT22;3735;50.136;11.062;2023-11-21T05:52:40;7.30;99.90
7388;DHT22;3735;50.136;11.062;2023-11-21T05:55:08;7.30;99.90
7388;DHT22;3735;50.136;11.062;2023-11-21T05:57:34;7.30;99.90
7388;DHT22;3735;50.136;11.062;2023-11-21T06:00:09;7.20;99.90
7388;DHT22;3735;50.136;11.062;2023-11-21T06:02:41;7.20;99.90
7388;DHT22;3735;50.136;11.062;2023-11-21T06:05:08;7.20;99.90
7388;DHT22;3735;50.136;11.062;2023-11-21T06:07:34;7.10;99.90
7388;DHT22;3735;50.136;11.062;2023-11-21T06:10:02;7.10;99.90
7388;DHT22;3735;50.136;11.062;2023-11-21T06:12:31;7.10;99.90
7388;DHT22;3735;50.136;11.062;2023-11-21T06:15:02;7.00;99.90
7388;DHT22;3735;50.136;11.062;2023-11-21T06:17:32;6.90;99.90
7388;DHT22;3735;50.136;11.062;2023-11-21T06:19:59;6.80;99.90
7388;DHT22;3735;50.136;11.062;2023-11-21T06:22:26;6.70;99.90
7388;DHT22;3735;50.136;11.062;2023-11-21T06:24:51;6.70;99.90
7388;DHT22;3735;50.136;11.062;2023-11-21T06:27:17;6.70;99.90
7388;DHT22;3735;50.136;11.062;2023-11-21T06:29:43;6.70;99.90
7388;DHT22;3735;50.136;11.062;2023-11-21T06:32:09;6.60;99.90
7388;DHT22;3735;50.136;11.062;2023-11-21T06:34:34;6.60;99.90
7388;DHT22;3735;50.136;11.062;2023-11-21T06:37:00;6.60;99.90
7388;DHT22;3735;50.136;11.062;2023-11-21T06:39:26;6.70;99.90
7388;DHT22;3735;50.136;11.062;2023-11-21T06:41:53;6.70;99.90
7388;DHT22;3735;50.136;11.062;2023-11-21T06:44:18;6.70;99.90
7388;DHT22;3735;50.136;11.062;2023-11-21T06:46:45;6.70;99.90
7388;DHT22;3735;50.136;11.062;2023-11-21T06:49:11;6.80;99.90
7388;DHT22;3735;50.136;11.062;2023-11-21T06:51:37;6.80;99.90
7388;DHT22;3735;50.136;11.062;2023-11-21T06:54:03;6.80;99.90
7388;DHT22;3735;50.136;11.062;2023-11-21T06:56:28;6.90;99.90
7388;DHT22;3735;50.136;11.062;2023-11-21T06:58:54;6.90;99.90
7388;DHT22;3735;50.136;11.062;2023-11-21T07:01:20;6.90;99.90
7388;DHT22;3735;50.136;11.062;2023-11-21T07:03:46;7.00;99.90
7388;DHT22;3735;50.136;11.062;2023-11-21T07:06:11;7.00;99.90
7388;DHT22;3735;50.136;11.062;2023-11-21T07:08:37;7.00;99.90
7388;DHT22;3735;50.136;11.062;2023-11-21T07:11:04;7.10;99.90
7388;DHT22;3735;50.136;11.062;2023-11-21T07:13:30;7.10;99.90
7388;DHT22;3735;50.136;11.062;2023-11-21T07:15:59;7.20;99.90
7388;DHT22;3735;50.136;11.062;2023-11-21T07:18:25;7.20;99.90
7388;DHT22;3735;50.136;11.062;2023-11-21T07:20:51;7.30;99.90
7388;DHT22;3735;50.136;11.062;2023-11-21T07:23:17;7.30;99.90
7388;DHT22;3735;50.136;11.062;2023-11-21T07:25:43;7.30;99.90
7388;DHT22;3735;50.136;11.062;2023-11-21T07:28:09;7.40;99.90
7388;DHT22;3735;50.136;11.062;2023-11-21T07:30:35;7.40;99.90
7388;DHT22;3735;50.136;11.062;2023-11-21T07:33:00;7.50;99.90
7388;DHT22;3735;50.136;11.062;2023-11-21T07:35:26;7.60;99.90
7388;DHT22;3735;50.136;11.062;2023-11-21T07:37:52;7.60;99.90
7388;DHT22;3735;50.136;11.062;2023-11-21T07:40:18;7.60;99.90
7388;DHT22;3735;50.136;11.062;2023-11-21T07:42:43;7.70;99.90
7388;DHT22;3735;50.136;11.062;2023-11-21T07:45:09;7.70;99.90
7388;DHT22;3735;50.136;11.062;2023-11-21T07:47:35;7.70;99.90
7388;DHT22;3735;50.136;11.062;2023-11-21T07:50:03;7.80;99.90
7388;DHT22;3735;50.136;11.062;2023-11-21T07:52:29;7.80;99.90
7388;DHT22;3735;50.136;11.062;2023-11-21T07:54:54;7.80;99.90
7388;DHT22;3735;50.136;11.062;2023-11-21T07:57:20;7.90;99.90
7388;DHT22;3735;50.136;11.062;2023-11-21T07:59:46;8.00;99.90
7388;DHT22;3735;50.136;11.062;2023-11-21T08:02:11;8.10;99.90
7388;DHT22;3735;50.136;11.062;2023-11-21T08:04:37;8.20;99.90
7388;DHT22;3735;50.136;11.062;2023-11-21T08:07:03;8.30;99.90
7388;DHT22;3735;50.136;11.062;2023-11-21T08:09:29;8.30;99.90
7388;DHT22;3735;50.136;11.062;2023-11-21T08:11:55;8.40;99.90
7388;DHT22;3735;50.136;11.062;2023-11-21T08:14:22;8.30;99.90
7388;DHT22;3735;50.136;11.062;2023-11-21T08:16:50;8.40;99.90
7388;DHT22;3735;50.136;11.062;2023-11-21T08:19:16;8.40;99.90
7388;DHT22;3735;50.136;11.062;2023-11-21T08:21:43;8.40;99.90
7388;DHT22;3735;50.136;11.062;2023-11-21T08:24:10;8.40;99.90
7388;DHT22;3735;50.136;11.062;2023-11-21T08:26:37;8.40;99.90
7388;DHT22;3735;50.136;11.062;2023-11-21T08:29:03;8.40;99.90
7388;DHT22;3735;50.136;11.062;2023-11-21T08:31:29;8.50;99.90
7388;DHT22;3735;50.136;11.062;2023-11-21T08:33:55;8.50;99.90
7388;DHT22;3735;50.136;11.062;2023-11-21T08:36:22;8.50;99.90
7388;DHT22;3735;50.136;11.062;2023-11-21T08:38:49;8.60;99.90
7388;DHT22;3735;50.136;11.062;2023-11-21T08:41:17;8.70;99.90
7388;DHT22;3735;50.136;11.062;2023-11-21T08:43:47;8.90;99.90
7388;DHT22;3735;50.136;11.062;2023-11-21T08:46:15;8.90;99.90
7388;DHT22;3735;50.136;11.062;2023-11-21T08:48:42;9.00;99.90
7388;DHT22;3735;50.136;11.062;2023-11-21T08:51:10;9.00;99.90
7388;DHT22;3735;50.136;11.062;2023-11-21T08:53:37;9.10;99.90
7388;DHT22;3735;50.136;11.062;2023-11-21T08:56:03;9.10;99.90
7388;DHT22;3735;50.136;11.062;2023-11-21T08:58:30;9.10;99.90
7388;DHT22;3735;50.136;11.062;2023-11-21T09:00:57;9.10;99.90
7388;DHT22;3735;50.136;11.062;2023-11-21T09:03:23;9.20;99.90
7388;DHT22;3735;50.136;11.062;2023-11-21T09:05:50;9.30;99.90
7388;DHT22;3735;50.136;11.062;2023-11-21T09:08:16;9.30;99.90
7388;DHT22;3735;50.136;11.062;2023-11-21T09:10:42;9.20;99.90
7388;DHT22;3735;50.136;11.062;2023-11-21T09:13:10;9.20;99.90
7388;DHT22;3735;50.136;11.062;2023-11-21T09:15:36;9.10;99.90
7388;DHT22;3735;50.136;11.062;2023-11-21T09:18:01;8.90;99.90
7388;DHT22;3735;50.136;11.062;2023-11-21T09:20:27;8.70;99.90
7388;DHT22;3735;50.136;11.062;2023-11-21T09:22:53;8.50;99.90
7388;DHT22;3735;50.136;11.062;2023-11-21T09:25:21;8.60;99.90
7388;DHT22;3735;50.136;11.062;2023-11-21T09:27:46;8.70;99.90
7388;DHT22;3735;50.136;11.062;2023-11-21T09:30:12;8.80;99.90
7388;DHT22;3735;50.136;11.062;2023-11-21T09:32:40;9.00;99.90
7388;DHT22;3735;50.136;11.062;2023-11-21T09:35:06;9.10;99.90
7388;DHT22;3735;50.136;11.062;2023-11-21T09:37:35;9.30;99.90
7388;DHT22;3735;50.136;11.062;2023-11-21T09:40:03;9.70;99.90
7388;DHT22;3735;50.136;11.062;2023-11-21T09:42:36;10.30;99.90
7388;DHT22;3735;50.136;11.062;2023-11-21T09:45:18;11.00;99.90
7388;DHT22;3735;50.136;11.062;2023-11-21T09:47:52;11.60;99.90
7388;DHT22;3735;50.136;11.062;2023-11-21T09:50:21;13.10;99.90
7388;DHT22;3735;50.136;11.062;2023-11-21T09:53:03;15.90;99.90
7388;DHT22;3735;50.136;11.062;2023-11-21T09:55:37;18.50;99.90
7388;DHT22;3735;50.136;11.062;2023-11-21T09:58:06;20.60;99.90
7388;DHT22;3735;50.136;11.062;2023-11-21T10:00:47;22.40;99.90
7388;DHT22;3735;50.136;11.062;2023-11-21T10:03:14;23.80;99.90
7388;DHT22;3735;50.136;11.062;2023-11-21T10:05:45;24.80;99.90
7388;DHT22;3735;50.136;11.062;2023-11-21T10:08:12;25.70;99.90
7388;DHT22;3735;50.136;11.062;2023-11-21T10:10:46;26.20;99.90
7388;DHT22;3735;50.136;11.062;2023-11-21T10:13:18;26.60;99.90
7388;DHT22;3735;50.136;11.062;2023-11-21T10:15:49;26.60;99.90
7388;DHT22;3735;50.136;11.062;2023-11-21T10:18:17;27.20;99.90
7388;DHT22;3735;50.136;11.062;2023-11-21T10:20:44;26.80;99.90
7388;DHT22;3735;50.136;11.062;2023-11-21T10:23:18;26.30;99.90
7388;DHT22;3735;50.136;11.062;2023-11-21T10:25:45;25.30;99.90
7388;DHT22;3735;50.136;11.062;2023-11-21T10:28:10;23.00;99.90
7388;DHT22;3735;50.136;11.062;2023-11-21T10:30:39;20.70;99.90
7388;DHT22;3735;50.136;11.062;2023-11-21T10:33:06;18.70;99.90
7388;DHT22;3735;50.136;11.062;2023-11-21T10:35:54;17.00;99.90
7388;DHT22;3735;50.136;11.062;2023-11-21T10:38:21;15.50;99.90
7388;DHT22;3735;50.136;11.062;2023-11-21T10:40:49;14.60;99.90
7388;DHT22;3735;50.136;11.062;2023-11-21T10:43:16;14.10;99.90
7388;DHT22;3735;50.136;11.062;2023-11-21T10:45:43;14.70;99.90
7388;DHT22;3735;50.136;11.062;2023-11-21T10:48:10;17.50;99.90
7388;DHT22;3735;50.136;11.062;2023-11-21T10:50:40;19.80;99.90
7388;DHT22;3735;50.136;11.062;2023-11-21T10:53:07;21.80;99.90
7388;DHT22;3735;50.136;11.062;2023-11-21T10:55:34;22.70;99.90
7388;DHT22;3735;50.136;11.062;2023-11-21T10:58:02;23.60;99.90
7388;DHT22;3735;50.136;11.062;2023-11-21T11:00:31;24.20;99.90
7388;DHT22;3735;50.136;11.062;2023-11-21T11:02:58;24.90;99.90
7388;DHT22;3735;50.136;11.062;2023-11-21T11:05:26;25.60;99.90
7388;DHT22;3735;50.136;11.062;2023-11-21T11:08:02;26.20;99.90
7388;DHT22;3735;50.136;11.062;2023-11-21T11:10:33;26.30;99.90
7388;DHT22;3735;50.136;11.062;2023-11-21T11:13:02;24.90;99.90
7388;DHT22;3735;50.136;11.062;2023-11-21T11:15:28;22.60;99.90
7388;DHT22;3735;50.136;11.062;2023-11-21T11:17:55;21.90;99.90
7388;DHT22;3735;50.136;11.062;2023-11-21T11:20:24;21.30;99.90
7388;DHT22;3735;50.136;11.062;2023-11-21T11:28:08;20.10;99.90
7388;DHT22;3735;50.136;11.062;2023-11-21T11:31:21;21.10;99.90
7388;DHT22;3735;50.136;11.062;2023-11-21T11:36:47;18.50;99.90
7388;DHT22;3735;50.136;11.062;2023-11-21T11:39:36;19.90;99.90
7388;DHT22;3735;50.136;11.062;2023-11-21T11:42:07;22.70;99.90
7388;DHT22;3735;50.136;11.062;2023-11-21T11:47:32;26.50;99.90
7388;DHT22;3735;50.136;11.062;2023-11-21T11:50:08;27.20;99.90
7388;DHT22;3735;50.136;11.062;2023-11-21T11:52:50;26.70;99.90
7388;DHT22;3735;50.136;11.062;2023-11-21T11:55:21;25.30;99.90
7388;DHT22;3735;50.136;11.062;2023-11-21T11:57:57;23.50;99.90
7388;DHT22;3735;50.136;11.062;2023-11-21T12:02:59;19.80;99.90
7388;DHT22;3735;50.136;11.062;2023-11-21T12:05:29;18.70;99.90
7388;DHT22;3735;50.136;11.062;2023-11-21T12:08:00;18.30;99.90
7388;DHT22;3735;50.136;11.062;2023-11-21T12:10:30;18.20;99.90
7388;DHT22;3735;50.136;11.062;2023-11-21T12:12:58;18.40;99.90
7388;DHT22;3735;50.136;11.062;2023-11-21T12:15:35;18.20;99.90
7388;DHT22;3735;50.136;11.062;2023-11-21T12:18:02;17.70;99.90
7388;DHT22;3735;50.136;11.062;2023-11-21T12:20:29;17.00;99.90
7388;DHT22;3735;50.136;11.062;2023-11-21T12:22:58;16.20;99.90
7388;DHT22;3735;50.136;11.062;2023-11-21T12:25:29;15.50;99.90
7388;DHT22;3735;50.136;11.062;2023-11-21T12:28:00;14.60;99.90
7388;DHT22;3735;50.136;11.062;2023-11-21T12:30:27;14.00;99.90
7388;DHT22;3735;50.136;11.062;2023-11-21T12:32:57;13.40;99.90
7388;DHT22;3735;50.136;11.062;2023-11-21T12:35:26;12.90;99.90
7388;DHT22;3735;50.136;11.062;2023-11-21T12:37:54;12.50;99.90
7388;DHT22;3735;50.136;11.062;2023-11-21T12:40:23;12.10;99.90
7388;DHT22;3735;50.136;11.062;2023-11-21T12:42:54;11.80;99.90
7388;DHT22;3735;50.136;11.062;2023-11-21T12:47:52;11.40;99.90
7388;DHT22;3735;50.136;11.062;2023-11-21T12:50:22;11.20;99.90
7388;DHT22;3735;50.136;11.062;2023-11-21T12:52:50;11.00;99.90
7388;DHT22;3735;50.136;11.062;2023-11-21T12:55:19;10.90;99.90
7388;DHT22;3735;50.136;11.062;2023-11-21T12:57:55;10.90;99.90
7388;DHT22;3735;50.136;11.062;2023-11-21T13:00:31;10.80;99.90
7388;DHT22;3735;50.136;11.062;2023-11-21T13:03:03;10.80;99.90
7388;DHT22;3735;50.136;11.062;2023-11-21T13:05:37;10.90;99.90
7388;DHT22;3735;50.136;11.062;2023-11-21T13:08:06;10.90;99.90
7388;DHT22;3735;50.136;11.062;2023-11-21T13:10:34;10.90;99.90
7388;DHT22;3735;50.136;11.062;2023-11-21T13:13:06;10.90;99.90
7388;DHT22;3735;50.136;11.062;2023-11-21T13:15:38;11.00;99.90
7388;DHT22;3735;50.136;11.062;2023-11-21T13:18:06;11.00;99.90
7388;DHT22;3735;50.136;11.062;2023-11-21T13:20:32;11.10;99.90
7388;DHT22;3735;50.136;11.062;2023-11-21T13:22:58;11.10;99.90
7388;DHT22;3735;50.136;11.062;2023-11-21T13:25:27;11.00;99.90
7388;DHT22;3735;50.136;11.062;2023-11-21T13:28:00;11.00;99.90
7388;DHT22;3735;50.136;11.062;2023-11-21T13:30:26;11.00;99.90
7388;DHT22;3735;50.136;11.062;2023-11-21T13:32:59;11.00;99.90
7388;DHT22;3735;50.136;11.062;2023-11-21T13:35:36;10.90;99.90
7388;DHT22;3735;50.136;11.062;2023-11-21T13:38:11;11.00;99.90
7388;DHT22;3735;50.136;11.062;2023-11-21T13:40:38;11.00;99.90
7388;DHT22;3735;50.136;11.062;2023-11-21T13:43:12;11.00;99.90
7388;DHT22;3735;50.136;11.062;2023-11-21T13:45:40;10.90;99.90
7388;DHT22;3735;50.136;11.062;2023-11-21T13:48:08;10.80;99.90
7388;DHT22;3735;50.136;11.062;2023-11-21T13:50:45;10.70;99.90
7388;DHT22;3735;50.136;11.062;2023-11-21T13:53:23;10.70;99.90
7388;DHT22;3735;50.136;11.062;2023-11-21T13:55:50;10.60;99.90
7388;DHT22;3735;50.136;11.062;2023-11-21T13:58:20;10.60;99.90
7388;DHT22;3735;50.136;11.062;2023-11-21T14:00:58;10.50;99.90
7388;DHT22;3735;50.136;11.062;2023-11-21T14:03:24;10.60;99.90
7388;DHT22;3735;50.136;11.062;2023-11-21T14:05:58;10.50;99.90
7388;DHT22;3735;50.136;11.062;2023-11-21T14:08:26;10.50;99.90
7388;DHT22;3735;50.136;11.062;2023-11-21T14:10:54;10.40;99.90
7388;DHT22;3735;50.136;11.062;2023-11-21T14:13:25;10.40;99.90
7388;DHT22;3735;50.136;11.062;2023-11-21T14:15:51;10.20;99.90
7388;DHT22;3735;50.136;11.062;2023-11-21T14:18:23;10.20;99.90
7388;DHT22;3735;50.136;11.062;2023-11-21T14:21:08;10.10;99.90
7388;DHT22;3735;50.136;11.062;2023-11-21T14:23:36;10.10;99.90
7388;DHT22;3735;50.136;11.062;2023-11-21T14:26:04;10.00;99.90
7388;DHT22;3735;50.136;11.062;2023-11-21T14:28:31;9.90;99.90
7388;DHT22;3735;50.136;11.062;2023-11-21T14:30:57;9.90;99.90
7388;DHT22;3735;50.136;11.062;2023-11-21T14:33:23;9.80;99.90
7388;DHT22;3735;50.136;11.062;2023-11-21T14:35:48;9.80;99.90
7388;DHT22;3735;50.136;11.062;2023-11-21T14:38:15;9.70;99.90
7388;DHT22;3735;50.136;11.062;2023-11-21T14:40:41;9.70;99.90
7388;DHT22;3735;50.136;11.062;2023-11-21T14:43:07;9.70;99.90
7388;DHT22;3735;50.136;11.062;2023-11-21T14:45:33;9.60;99.90
7388;DHT22;3735;50.136;11.062;2023-11-21T14:48:00;9.60;99.90
7388;DHT22;3735;50.136;11.062;2023-11-21T14:50:33;9.50;99.90
7388;DHT22;3735;50.136;11.062;2023-11-21T14:53:16;9.40;99.90
7388;DHT22;3735;50.136;11.062;2023-11-21T14:55:55;9.40;99.90
7388;DHT22;3735;50.136;11.062;2023-11-21T14:58:24;9.30;99.90
7388;DHT22;3735;50.136;11.062;2023-11-21T15:00:55;9.30;99.90
7388;DHT22;3735;50.136;11.062;2023-11-21T15:03:25;9.20;99.90
7388;DHT22;3735;50.136;11.062;2023-11-21T15:06:00;9.20;99.90
7388;DHT22;3735;50.136;11.062;2023-11-21T15:08:50;9.10;99.90
7388;DHT22;3735;50.136;11.062;2023-11-21T15:11:35;9.00;99.90
7388;DHT22;3735;50.136;11.062;2023-11-21T15:14:03;8.90;99.90
7388;DHT22;3735;50.136;11.062;2023-11-21T15:16:35;8.80;99.90
7388;DHT22;3735;50.136;11.062;2023-11-21T15:19:07;8.90;99.90
7388;DHT22;3735;50.136;11.062;2023-11-21T15:21:35;8.70;99.90
7388;DHT22;3735;50.136;11.062;2023-11-21T15:24:02;8.70;99.90
7388;DHT22;3735;50.136;11.062;2023-11-21T15:26:28;8.60;99.90
7388;DHT22;3735;50.136;11.062;2023-11-21T15:28:54;8.60;99.90
7388;DHT22;3735;50.136;11.062;2023-11-21T15:31:21;8.60;99.90
7388;DHT22;3735;50.136;11.062;2023-11-21T15:33:51;8.60;99.90
7388;DHT22;3735;50.136;11.062;2023-11-21T15:36:18;8.60;99.90
7388;DHT22;3735;50.136;11.062;2023-11-21T15:38:45;8.60;99.90
7388;DHT22;3735;50.136;11.062;2023-11-21T15:41:10;8.50;99.90
7388;DHT22;3735;50.136;11.062;2023-11-21T15:43:37;8.50;99.90
7388;DHT22;3735;50.136;11.062;2023-11-21T15:46:03;8.60;99.90
7388;DHT22;3735;50.136;11.062;2023-11-21T15:48:36;8.50;99.90
7388;DHT22;3735;50.136;11.062;2023-11-21T15:51:06;8.50;99.90
7388;DHT22;3735;50.136;11.062;2023-11-21T15:53:33;8.50;99.90
7388;DHT22;3735;50.136;11.062;2023-11-21T15:55:59;8.40;99.90
7388;DHT22;3735;50.136;11.062;2023-11-21T15:58:28;8.40;99.90
7388;DHT22;3735;50.136;11.062;2023-11-21T16:00:54;8.40;99.90
7388;DHT22;3735;50.136;11.062;2023-11-21T16:03:19;8.50;99.90
7388;DHT22;3735;50.136;11.062;2023-11-21T16:05:47;8.40;99.90
7388;DHT22;3735;50.136;11.062;2023-11-21T16:08:13;8.40;99.90
7388;DHT22;3735;50.136;11.062;2023-11-21T16:10:39;8.40;99.90
7388;DHT22;3735;50.136;11.062;2023-11-21T16:13:05;8.30;99.90
7388;DHT22;3735;50.136;11.062;2023-11-21T16:15:31;8.30;99.90
7388;DHT22;3735;50.136;11.062;2023-11-21T16:17:57;8.20;99.90